METAR Data
IDs: Format: Raw Decoded Include TAF

Data at: 0333 UTC 18 Jun 2019

PADK 180256Z AUTO 35009KT 10SM OVC013 08/06 A3021 RMK AO2 SLP228 T00830056 53001
PADK 180156Z AUTO 12004KT 10SM OVC011 08/06 A3020 RMK AO2 SLP227 T00830056
PADK 180056Z AUTO 08003KT 10SM OVC011 08/06 A3020 RMK AO2 SLP227 T00830056
PADK 172356Z AUTO 08004KT 10SM OVC011 08/06 A3020 RMK AO2 SLP228 T00780056 10083 20061 51008
PADK 172312Z AUTO VRB05KT 10SM OVC011 08/06 A3020 RMK AO2
PADK 172256Z AUTO VRB03KT 10SM OVC009 07/05 A3020 RMK AO2 SLP226 T00720050
PADK 172156Z AUTO 35004KT 10SM OVC007 07/05 A3020 RMK AO2 SLP225 T00670050
PADK 172056Z AUTO 01007KT 10SM OVC007 07/04 A3018 RMK AO2 SLP220 T00670044 53010
PADK 171956Z AUTO 01006KT 10SM OVC007 07/04 A3017 RMK AO2 SLP216 T00670044
PADK 171856Z AUTO 01008KT 10SM OVC007 06/04 A3015 RMK AO2 SLP211 T00610044
PADK 171756Z AUTO 36009KT 10SM OVC007 06/04 A3015 RMK AO2 SLP210 T00610044 10072 20061 51014
PADK 171656Z AUTO 02006KT 10SM OVC009 07/05 A3014 RMK AO2 SLP205 T00670050
PADK 171556Z AUTO 34004KT 10SM OVC009 07/05 A3013 RMK AO2 SLP201 T00670050
PADK 171456Z AUTO 36007KT 10SM OVC009 07/05 A3011 RMK AO2 SLP196 T00670050 51009
PADK 171356Z AUTO 36005KT 10SM OVC009 07/06 A3011 RMK AO2 SLP195 T00720056
PADK 171256Z AUTO 35010KT 10SM OVC009 07/06 A3010 RMK AO2 SLP192 T00720056
PADK 171156Z AUTO 36010KT 10SM OVC009 07/06 A3008 RMK AO2 SLP187 T00720056 10083 20072 51012
PADK 171134Z AUTO 36012KT 10SM OVC009 07/06 A3008 RMK AO2
PADK 171056Z AUTO 35010G16KT 10SM OVC011 07/06 A3007 RMK AO2 SLP184 T00720061
PADK 170956Z AUTO 35009G16KT 10SM OVC011 08/06 A3007 RMK AO2 SLP182 T00780061 401060061
PADK 170856Z AUTO 34015G19KT 10SM OVC013 07/07 A3005 RMK AO2 SLP176 T00720067 51016
PADK 170756Z AUTO 35017KT 5SM BR SCT006 BKN011 OVC046 07/07 A3003 RMK AO2 SLP170 T00720067
PADK 170656Z AUTO 35015G19KT 5SM BR FEW004 OVC021 08/07 A3000 RMK AO2 SLP160 T00780067
PADK 170648Z AUTO 35015G19KT 3SM BR FEW004 OVC021 08/07 A3001 RMK AO2
PADK 170638Z AUTO 36014G20KT 2 1/2SM BR FEW004 OVC021 08/07 A3001 RMK AO2 VIS 2V4
PADK 170619Z AUTO 36015KT 5SM BR SCT004 SCT014 OVC021 08/07 A3000 RMK AO2
PADK 170556Z AUTO 36016KT 10SM FEW004 BKN014 OVC021 08/07 A3000 RMK AO2 SLP158 T00830072 10106 20083 53018
PADK 170545Z AUTO 35012KT 9SM SCT006 OVC014 08/07 A3000 RMK AO2
PADK 170456Z AUTO 34016KT 6SM BR OVC006 08/07 A2997 RMK AO2 CIG 005V010 SLP147 T00830067
PADK 170433Z AUTO 35017KT 8SM BKN008 OVC014 09/07 A2997 RMK AO2 CIG 005V010
PADK 170425Z AUTO 34016KT 8SM SCT008 OVC014 09/07 A2997 RMK AO2
PADK 170356Z AUTO 02013G19KT 10SM OVC014 09/07 A2996 RMK AO2 SLP145 T00890072
PADK 170256Z AUTO 35015KT 10SM FEW008 OVC014 09/07 A2995 RMK AO2 SLP141 T00940072 51006
PADK 170253Z AUTO 35012KT 10SM SCT008 OVC014 09/07 A2995 RMK AO2
PADK 170212Z AUTO 01010G16KT 6SM BR BKN008 OVC014 09/07 A2994 RMK AO2
PADK 170156Z AUTO 36011G21KT 7SM SCT008 OVC012 09/07 A2993 RMK AO2 PK WND 35026/0123 SLP135 T00940072
PADK 170153Z AUTO 36010G21KT 6SM BR FEW008 OVC012 09/07 A2993 RMK AO2 PK WND 35026/0123 PRESRR
PADK 170056Z AUTO 34019KT 8SM OVC010 09/08 A2990 RMK AO2 CIG 007V012 SLP124 T00890078
PADK 170047Z AUTO 35017G21KT 8SM OVC010 09/08 A2990 RMK AO2 CIG 007V012
PADK 162356Z AUTO 36012KT 6SM BR OVC006 08/07 A2989 RMK AO2 CIG 006V010 SLP122 60000 T00830072 10083 20072 51017
PADK 162256Z AUTO 35014KT 4SM BR OVC006 08/07 A2989 RMK AO2 CIG 004V010 SLP120 T00830072
PADK 162249Z AUTO 36015G19KT 4SM BR OVC006 08/07 A2988 RMK AO2 CIG 004V009
PADK 162219Z AUTO 36012KT 2SM BR OVC006 08/07 A2987 RMK AO2
PADK 162212Z AUTO 35013KT 3SM BR OVC006 08/07 A2987 RMK AO2
PADK 162156Z AUTO 36015G19KT 2 1/2SM BR OVC006 08/07 A2987 RMK AO2 RAB2059E15 SLP114 P0000 T00780072
PADK 162149Z AUTO 36015G21KT 2 1/2SM BR OVC006 08/07 A2987 RMK AO2 RAB2059E15 P0000
PADK 162108Z AUTO 35017KT 3SM -RA BR OVC006 08/07 A2985 RMK AO2 RAB2059 P0000
PADK 162056Z AUTO 35015G22KT 1 3/4SM BR OVC006 08/07 A2984 RMK AO2 RAE37 SLP104 P0000 60000 T00830072 51012
PADK 161956Z AUTO 35014G19KT 2 1/2SM -RA BR OVC008 08/07 A2983 RMK AO2 RAB22 SLP101 P0000 T00780067
PADK 161907Z AUTO 33015G21KT 2 1/2SM BR OVC008 08/06 A2982 RMK AO2 CIG 006V012
PADK 161856Z AUTO 33012G16KT 4SM BR OVC010 08/06 A2982 RMK AO2 CIG 007V013 SLP096 T00780061
PADK 161827Z AUTO 31015G21KT 270V330 8SM OVC010 08/06 A2980 RMK AO2
PADK 161756Z AUTO 35007KT 5SM BR OVC008 07/06 A2981 RMK AO2 SLP093 T00720061 10083 20067 51003
PADK 161752Z AUTO VRB03KT 5SM BR OVC008 07/06 A2980 RMK AO2 CIG 007V011
PADK 161726Z AUTO 33010G15KT 6SM BR OVC010 07/06 A2981 RMK AO2 CIG 007V012
PADK 161703Z AUTO 32011G17KT 270V340 9SM BKN008 OVC013 07/06 A2980 RMK AO2 CIG 007V010
PADK 161656Z AUTO 29013G28KT 260V330 8SM BKN010 OVC017 07/06 A2980 RMK AO2 PK WND 25028/1653 CIG 007V013 SLP093 T00720056
PADK 161609Z AUTO 23014G20KT 7SM FEW007 OVC014 07/06 A2979 RMK AO2
PADK 161556Z AUTO VRB06KT 10SM BKN012 OVC019 07/05 A2980 RMK AO2 SLP090 T00720050
PADK 161548Z AUTO VRB03G20KT 10SM FEW007 BKN014 OVC019 07/05 A2980 RMK AO2